sensor_id;sensor_type;location;lat;lon;timestamp;temperature;humidity
9311;DHT22;4694;52.464;13.480;2024-02-21T00:01:22;8.30;99.90
9311;DHT22;4694;52.464;13.480;2024-02-21T00:03:49;8.30;99.90
9311;DHT22;4694;52.464;13.480;2024-02-21T00:06:15;8.30;99.90
9311;DHT22;4694;52.464;13.480;2024-02-21T00:08:42;8.30;99.90
9311;DHT22;4694;52.464;13.480;2024-02-21T00:11:08;8.30;99.90
9311;DHT22;4694;52.464;13.480;2024-02-21T00:13:36;8.20;99.90
9311;DHT22;4694;52.464;13.480;2024-02-21T00:16:04;8.30;99.90
9311;DHT22;4694;52.464;13.480;2024-02-21T00:18:30;8.20;99.90
9311;DHT22;4694;52.464;13.480;2024-02-21T00:20:57;8.30;99.90
9311;DHT22;4694;52.464;13.480;2024-02-21T00:23:23;8.30;99.90
9311;DHT22;4694;52.464;13.480;2024-02-21T00:25:50;8.20;99.90
9311;DHT22;4694;52.464;13.480;2024-02-21T00:28:16;8.20;99.90
9311;DHT22;4694;52.464;13.480;2024-02-21T00:30:44;8.30;99.90
9311;DHT22;4694;52.464;13.480;2024-02-21T00:33:13;8.30;99.90
9311;DHT22;4694;52.464;13.480;2024-02-21T00:35:40;8.30;99.90
9311;DHT22;4694;52.464;13.480;2024-02-21T00:38:06;8.20;99.90
9311;DHT22;4694;52.464;13.480;2024-02-21T00:40:33;8.20;99.90
9311;DHT22;4694;52.464;13.480;2024-02-21T00:43:00;8.20;99.90
9311;DHT22;4694;52.464;13.480;2024-02-21T00:45:26;8.30;99.90
9311;DHT22;4694;52.464;13.480;2024-02-21T00:47:54;8.20;99.90
9311;DHT22;4694;52.464;13.480;2024-02-21T00:50:21;8.20;99.90
9311;DHT22;4694;52.464;13.480;2024-02-21T00:52:48;8.20;99.90
9311;DHT22;4694;52.464;13.480;2024-02-21T00:55:15;8.10;99.90
9311;DHT22;4694;52.464;13.480;2024-02-21T00:57:41;8.20;99.90
9311;DHT22;4694;52.464;13.480;2024-02-21T01:00:09;8.10;99.90
9311;DHT22;4694;52.464;13.480;2024-02-21T01:02:35;8.10;99.90
9311;DHT22;4694;52.464;13.480;2024-02-21T01:05:04;8.10;99.90
9311;DHT22;4694;52.464;13.480;2024-02-21T01:07:30;8.10;99.90
9311;DHT22;4694;52.464;13.480;2024-02-21T01:09:57;8.10;99.90
9311;DHT22;4694;52.464;13.480;2024-02-21T01:12:24;8.10;99.90
9311;DHT22;4694;52.464;13.480;2024-02-21T01:14:51;8.10;99.90
9311;DHT22;4694;52.464;13.480;2024-02-21T01:17:17;8.10;99.90
9311;DHT22;4694;52.464;13.480;2024-02-21T01:19:46;8.10;99.90
9311;DHT22;4694;52.464;13.480;2024-02-21T01:22:14;8.10;99.90
9311;DHT22;4694;52.464;13.480;2024-02-21T01:24:41;8.10;99.90
9311;DHT22;4694;52.464;13.480;2024-02-21T01:27:07;8.10;99.90
9311;DHT22;4694;52.464;13.480;2024-02-21T01:29:35;8.10;99.90
9311;DHT22;4694;52.464;13.480;2024-02-21T01:32:01;8.10;99.90
9311;DHT22;4694;52.464;13.480;2024-02-21T01:34:28;8.10;99.90
9311;DHT22;4694;52.464;13.480;2024-02-21T01:36:54;8.10;99.90
9311;DHT22;4694;52.464;13.480;2024-02-21T01:39:22;8.10;99.90
9311;DHT22;4694;52.464;13.480;2024-02-21T01:41:49;8.20;99.90
9311;DHT22;4694;52.464;13.480;2024-02-21T01:44:15;8.20;99.90
9311;DHT22;4694;52.464;13.480;2024-02-21T01:46:42;8.10;99.90
9311;DHT22;4694;52.464;13.480;2024-02-21T01:49:09;8.20;99.90
9311;DHT22;4694;52.464;13.480;2024-02-21T01:51:36;8.20;99.90
9311;DHT22;4694;52.464;13.480;2024-02-21T01:54:03;8.30;99.90
9311;DHT22;4694;52.464;13.480;2024-02-21T01:56:31;8.30;99.90
9311;DHT22;4694;52.464;13.480;2024-02-21T01:58:58;8.30;99.90
9311;DHT22;4694;52.464;13.480;2024-02-21T02:01:25;8.30;99.90
9311;DHT22;4694;52.464;13.480;2024-02-21T02:03:52;8.30;99.90
9311;DHT22;4694;52.464;13.480;2024-02-21T02:06:19;8.40;99.90
9311;DHT22;4694;52.464;13.480;2024-02-21T02:08:45;8.40;99.90
9311;DHT22;4694;52.464;13.480;2024-02-21T02:11:13;8.30;99.90
9311;DHT22;4694;52.464;13.480;2024-02-21T02:13:42;8.30;99.90
9311;DHT22;4694;52.464;13.480;2024-02-21T02:16:08;8.40;99.90
9311;DHT22;4694;52.464;13.480;2024-02-21T02:18:35;8.40;99.90
9311;DHT22;4694;52.464;13.480;2024-02-21T02:21:04;8.40;99.90
9311;DHT22;4694;52.464;13.480;2024-02-21T02:23:33;8.40;99.90
9311;DHT22;4694;52.464;13.480;2024-02-21T02:26:00;8.40;99.90
9311;DHT22;4694;52.464;13.480;2024-02-21T02:28:27;8.40;99.90
9311;DHT22;4694;52.464;13.480;2024-02-21T02:30:54;8.40;99.90
9311;DHT22;4694;52.464;13.480;2024-02-21T02:33:20;8.40;99.90
9311;DHT22;4694;52.464;13.480;2024-02-21T02:39:02;8.30;99.90
9311;DHT22;4694;52.464;13.480;2024-02-21T02:41:28;8.20;99.90
9311;DHT22;4694;52.464;13.480;2024-02-21T02:43:55;8.20;99.90
9311;DHT22;4694;52.464;13.480;2024-02-21T02:46:21;8.10;99.90
9311;DHT22;4694;52.464;13.480;2024-02-21T02:48:48;8.10;99.90
9311;DHT22;4694;52.464;13.480;2024-02-21T02:51:14;8.00;99.90
9311;DHT22;4694;52.464;13.480;2024-02-21T02:53:41;8.00;99.90
9311;DHT22;4694;52.464;13.480;2024-02-21T02:56:14;8.00;99.90
9311;DHT22;4694;52.464;13.480;2024-02-21T02:58:40;7.90;99.90
9311;DHT22;4694;52.464;13.480;2024-02-21T03:01:07;7.90;99.90
9311;DHT22;4694;52.464;13.480;2024-02-21T03:03:34;7.80;99.90
9311;DHT22;4694;52.464;13.480;2024-02-21T03:06:00;7.80;99.90
9311;DHT22;4694;52.464;13.480;2024-02-21T03:08:27;7.80;99.90
9311;DHT22;4694;52.464;13.480;2024-02-21T03:10:53;7.80;99.90
9311;DHT22;4694;52.464;13.480;2024-02-21T03:13:21;7.80;99.90
9311;DHT22;4694;52.464;13.480;2024-02-21T03:15:48;7.80;99.90
9311;DHT22;4694;52.464;13.480;2024-02-21T03:18:15;7.80;99.90
9311;DHT22;4694;52.464;13.480;2024-02-21T03:20:42;7.80;99.90
9311;DHT22;4694;52.464;13.480;2024-02-21T03:23:08;7.70;99.90
9311;DHT22;4694;52.464;13.480;2024-02-21T03:25:35;7.70;99.90
9311;DHT22;4694;52.464;13.480;2024-02-21T03:28:02;7.70;99.90
9311;DHT22;4694;52.464;13.480;2024-02-21T03:30:30;7.70;99.90
9311;DHT22;4694;52.464;13.480;2024-02-21T03:32:57;7.70;99.90
9311;DHT22;4694;52.464;13.480;2024-02-21T03:35:23;7.70;99.90
9311;DHT22;4694;52.464;13.480;2024-02-21T03:37:51;7.70;99.90
9311;DHT22;4694;52.464;13.480;2024-02-21T03:40:18;7.70;99.90
9311;DHT22;4694;52.464;13.480;2024-02-21T03:42:44;7.70;99.90
9311;DHT22;4694;52.464;13.480;2024-02-21T03:45:11;7.70;99.90
9311;DHT22;4694;52.464;13.480;2024-02-21T03:47:39;7.70;99.90
9311;DHT22;4694;52.464;13.480;2024-02-21T03:50:06;7.60;99.90
9311;DHT22;4694;52.464;13.480;2024-02-21T03:52:33;7.60;99.90
9311;DHT22;4694;52.464;13.480;2024-02-21T03:55:00;7.60;99.90
9311;DHT22;4694;52.464;13.480;2024-02-21T03:57:27;7.60;99.90
9311;DHT22;4694;52.464;13.480;2024-02-21T03:59:53;7.60;99.90
9311;DHT22;4694;52.464;13.480;2024-02-21T04:02:20;7.50;99.90
9311;DHT22;4694;52.464;13.480;2024-02-21T04:04:48;7.60;99.90
9311;DHT22;4694;52.464;13.480;2024-02-21T04:07:15;7.50;99.90
9311;DHT22;4694;52.464;13.480;2024-02-21T04:09:42;7.50;99.90
9311;DHT22;4694;52.464;13.480;2024-02-21T04:12:09;7.50;99.90
9311;DHT22;4694;52.464;13.480;2024-02-21T04:14:35;7.50;99.90
9311;DHT22;4694;52.464;13.480;2024-02-21T04:17:02;7.40;99.90
9311;DHT22;4694;52.464;13.480;2024-02-21T04:19:30;7.50;99.90
9311;DHT22;4694;52.464;13.480;2024-02-21T04:21:58;7.40;99.90
9311;DHT22;4694;52.464;13.480;2024-02-21T04:24:25;7.50;99.90
9311;DHT22;4694;52.464;13.480;2024-02-21T04:26:51;7.40;99.90
9311;DHT22;4694;52.464;13.480;2024-02-21T04:29:18;7.40;99.90
9311;DHT22;4694;52.464;13.480;2024-02-21T04:31:45;7.40;99.90
9311;DHT22;4694;52.464;13.480;2024-02-21T04:34:11;7.40;99.90
9311;DHT22;4694;52.464;13.480;2024-02-21T04:36:38;7.40;99.90
9311;DHT22;4694;52.464;13.480;2024-02-21T04:39:06;7.40;99.90
9311;DHT22;4694;52.464;13.480;2024-02-21T04:41:32;7.40;99.90
9311;DHT22;4694;52.464;13.480;2024-02-21T04:43:59;7.40;99.90
9311;DHT22;4694;52.464;13.480;2024-02-21T04:46:26;7.40;99.90
9311;DHT22;4694;52.464;13.480;2024-02-21T04:48:52;7.40;99.90
9311;DHT22;4694;52.464;13.480;2024-02-21T04:51:19;7.40;99.90
9311;DHT22;4694;52.464;13.480;2024-02-21T04:53:45;7.40;99.90
9311;DHT22;4694;52.464;13.480;2024-02-21T04:56:13;7.40;99.90
9311;DHT22;4694;52.464;13.480;2024-02-21T04:58:40;7.40;99.90
9311;DHT22;4694;52.464;13.480;2024-02-21T05:01:07;7.40;99.90
9311;DHT22;4694;52.464;13.480;2024-02-21T05:03:34;7.30;99.90
9311;DHT22;4694;52.464;13.480;2024-02-21T05:06:00;7.40;99.90
9311;DHT22;4694;52.464;13.480;2024-02-21T05:08:27;7.40;99.90
9311;DHT22;4694;52.464;13.480;2024-02-21T05:10:53;7.40;99.90
9311;DHT22;4694;52.464;13.480;2024-02-21T05:13:21;7.40;99.90
9311;DHT22;4694;52.464;13.480;2024-02-21T05:15:48;7.40;99.90
9311;DHT22;4694;52.464;13.480;2024-02-21T05:18:15;7.40;99.90
9311;DHT22;4694;52.464;13.480;2024-02-21T05:20:41;7.40;99.90
9311;DHT22;4694;52.464;13.480;2024-02-21T05:23:08;7.40;99.90
9311;DHT22;4694;52.464;13.480;2024-02-21T05:25:35;7.40;99.90
9311;DHT22;4694;52.464;13.480;2024-02-21T05:28:01;7.40;99.90
9311;DHT22;4694;52.464;13.480;2024-02-21T05:30:30;7.40;99.90
9311;DHT22;4694;52.464;13.480;2024-02-21T05:32:56;7.40;99.90
9311;DHT22;4694;52.464;13.480;2024-02-21T05:35:25;7.40;99.90
9311;DHT22;4694;52.464;13.480;2024-02-21T05:37:53;7.40;99.90
9311;DHT22;4694;52.464;13.480;2024-02-21T05:40:19;7.40;99.90
9311;DHT22;4694;52.464;13.480;2024-02-21T05:42:46;7.40;99.90
9311;DHT22;4694;52.464;13.480;2024-02-21T05:45:13;7.40;99.90
9311;DHT22;4694;52.464;13.480;2024-02-21T05:47:42;7.40;99.90
9311;DHT22;4694;52.464;13.480;2024-02-21T05:50:09;7.40;99.90
9311;DHT22;4694;52.464;13.480;2024-02-21T05:52:36;7.40;99.90
9311;DHT22;4694;52.464;13.480;2024-02-21T05:55:03;7.40;99.90
9311;DHT22;4694;52.464;13.480;2024-02-21T05:57:30;7.40;99.90
9311;DHT22;4694;52.464;13.480;2024-02-21T05:59:57;7.40;99.90
9311;DHT22;4694;52.464;13.480;2024-02-21T06:02:23;7.40;99.90
9311;DHT22;4694;52.464;13.480;2024-02-21T06:04:51;7.40;99.90
9311;DHT22;4694;52.464;13.480;2024-02-21T06:07:18;7.40;99.90
9311;DHT22;4694;52.464;13.480;2024-02-21T06:09:44;7.50;99.90
9311;DHT22;4694;52.464;13.480;2024-02-21T06:12:11;7.40;99.90
9311;DHT22;4694;52.464;13.480;2024-02-21T06:14:37;7.50;99.90
9311;DHT22;4694;52.464;13.480;2024-02-21T06:17:04;7.50;99.90
9311;DHT22;4694;52.464;13.480;2024-02-21T06:19:31;7.50;99.90
9311;DHT22;4694;52.464;13.480;2024-02-21T06:21:59;7.50;99.90
9311;DHT22;4694;52.464;13.480;2024-02-21T06:24:25;7.50;99.90
9311;DHT22;4694;52.464;13.480;2024-02-21T06:26:52;7.50;99.90
9311;DHT22;4694;52.464;13.480;2024-02-21T06:29:18;7.50;99.90
9311;DHT22;4694;52.464;13.480;2024-02-21T06:31:45;7.50;99.90
9311;DHT22;4694;52.464;13.480;2024-02-21T06:34:12;7.60;99.90
9311;DHT22;4694;52.464;13.480;2024-02-21T06:36:38;7.80;99.90
9311;DHT22;4694;52.464;13.480;2024-02-21T06:39:06;8.10;99.90
9311;DHT22;4694;52.464;13.480;2024-02-21T06:41:33;8.00;99.90
9311;DHT22;4694;52.464;13.480;2024-02-21T06:44:00;8.00;99.90
9311;DHT22;4694;52.464;13.480;2024-02-21T06:46:27;8.00;99.90
9311;DHT22;4694;52.464;13.480;2024-02-21T06:48:55;7.90;99.90
9311;DHT22;4694;52.464;13.480;2024-02-21T06:51:22;7.90;99.90
9311;DHT22;4694;52.464;13.480;2024-02-21T06:53:49;7.80;99.90
9311;DHT22;4694;52.464;13.480;2024-02-21T06:56:17;7.80;99.90
9311;DHT22;4694;52.464;13.480;2024-02-21T06:58:44;7.80;99.90
9311;DHT22;4694;52.464;13.480;2024-02-21T07:01:11;7.80;99.90
9311;DHT22;4694;52.464;13.480;2024-02-21T07:03:38;7.80;99.90
9311;DHT22;4694;52.464;13.480;2024-02-21T07:06:04;7.90;99.90
9311;DHT22;4694;52.464;13.480;2024-02-21T07:08:31;7.80;99.90
9311;DHT22;4694;52.464;13.480;2024-02-21T07:10:58;7.90;99.90
9311;DHT22;4694;52.464;13.480;2024-02-21T07:13:26;7.90;99.90
9311;DHT22;4694;52.464;13.480;2024-02-21T07:15:55;7.90;99.90
9311;DHT22;4694;52.464;13.480;2024-02-21T07:18:21;7.90;99.90
9311;DHT22;4694;52.464;13.480;2024-02-21T07:20:48;7.90;99.90
9311;DHT22;4694;52.464;13.480;2024-02-21T07:23:14;8.00;99.90
9311;DHT22;4694;52.464;13.480;2024-02-21T07:25:41;8.00;99.90
9311;DHT22;4694;52.464;13.480;2024-02-21T07:28:08;8.00;99.90
9311;DHT22;4694;52.464;13.480;2024-02-21T07:30:36;8.00;99.90
9311;DHT22;4694;52.464;13.480;2024-02-21T07:33:03;8.00;99.90
9311;DHT22;4694;52.464;13.480;2024-02-21T07:35:29;8.00;99.90
9311;DHT22;4694;52.464;13.480;2024-02-21T07:37:56;8.00;99.90
9311;DHT22;4694;52.464;13.480;2024-02-21T07:40:23;8.00;99.90
9311;DHT22;4694;52.464;13.480;2024-02-21T07:42:49;8.00;99.90
9311;DHT22;4694;52.464;13.480;2024-02-21T07:45:16;8.10;99.90
9311;DHT22;4694;52.464;13.480;2024-02-21T07:47:45;8.10;99.90
9311;DHT22;4694;52.464;13.480;2024-02-21T07:50:11;8.20;99.90
9311;DHT22;4694;52.464;13.480;2024-02-21T07:52:38;8.10;99.90
9311;DHT22;4694;52.464;13.480;2024-02-21T07:55:05;8.20;99.90
9311;DHT22;4694;52.464;13.480;2024-02-21T07:57:32;8.20;99.90
9311;DHT22;4694;52.464;13.480;2024-02-21T07:59:58;8.10;99.90
9311;DHT22;4694;52.464;13.480;2024-02-21T08:02:25;8.20;99.90
9311;DHT22;4694;52.464;13.480;2024-02-21T08:04:53;8.20;99.90
9311;DHT22;4694;52.464;13.480;2024-02-21T08:07:19;8.20;99.90
9311;DHT22;4694;52.464;13.480;2024-02-21T08:09:46;8.20;99.90
9311;DHT22;4694;52.464;13.480;2024-02-21T08:12:13;8.30;99.90
9311;DHT22;4694;52.464;13.480;2024-02-21T08:14:39;8.30;99.90
9311;DHT22;4694;52.464;13.480;2024-02-21T08:17:06;8.30;99.90
9311;DHT22;4694;52.464;13.480;2024-02-21T08:19:32;8.30;99.90
9311;DHT22;4694;52.464;13.480;2024-02-21T08:22:00;8.30;99.90
9311;DHT22;4694;52.464;13.480;2024-02-21T08:24:28;8.40;99.90
9311;DHT22;4694;52.464;13.480;2024-02-21T08:26:55;8.40;99.90
9311;DHT22;4694;52.464;13.480;2024-02-21T08:29:22;8.40;99.90
9311;DHT22;4694;52.464;13.480;2024-02-21T08:31:48;8.40;99.90
9311;DHT22;4694;52.464;13.480;2024-02-21T08:34:15;8.50;99.90
9311;DHT22;4694;52.464;13.480;2024-02-21T08:36:43;8.60;99.90
9311;DHT22;4694;52.464;13.480;2024-02-21T08:39:11;8.60;99.90
9311;DHT22;4694;52.464;13.480;2024-02-21T08:41:40;8.70;99.90
9311;DHT22;4694;52.464;13.480;2024-02-21T08:44:07;8.80;99.90
9311;DHT22;4694;52.464;13.480;2024-02-21T08:46:33;8.80;99.90
9311;DHT22;4694;52.464;13.480;2024-02-21T08:49:00;8.90;99.90
9311;DHT22;4694;52.464;13.480;2024-02-21T08:51:27;9.00;99.90
9311;DHT22;4694;52.464;13.480;2024-02-21T08:53:53;9.10;99.90
9311;DHT22;4694;52.464;13.480;2024-02-21T08:56:22;9.10;99.90
9311;DHT22;4694;52.464;13.480;2024-02-21T08:58:48;9.10;99.90
9311;DHT22;4694;52.464;13.480;2024-02-21T09:01:15;9.20;99.90
9311;DHT22;4694;52.464;13.480;2024-02-21T09:03:42;9.20;99.90
9311;DHT22;4694;52.464;13.480;2024-02-21T09:06:11;9.30;99.90
9311;DHT22;4694;52.464;13.480;2024-02-21T09:08:39;9.40;99.90
9311;DHT22;4694;52.464;13.480;2024-02-21T09:11:06;9.50;99.90
9311;DHT22;4694;52.464;13.480;2024-02-21T09:13:34;9.60;99.90
9311;DHT22;4694;52.464;13.480;2024-02-21T09:16:01;9.70;99.90
9311;DHT22;4694;52.464;13.480;2024-02-21T09:18:28;9.70;99.90
9311;DHT22;4694;52.464;13.480;2024-02-21T09:20:54;9.70;99.90
9311;DHT22;4694;52.464;13.480;2024-02-21T09:23:24;9.70;99.90
9311;DHT22;4694;52.464;13.480;2024-02-21T09:25:50;9.70;99.90
9311;DHT22;4694;52.464;13.480;2024-02-21T09:28:17;9.80;99.90
9311;DHT22;4694;52.464;13.480;2024-02-21T09:30:45;9.80;99.90
9311;DHT22;4694;52.464;13.480;2024-02-21T09:33:12;9.90;99.90
9311;DHT22;4694;52.464;13.480;2024-02-21T09:35:39;9.90;99.90
9311;DHT22;4694;52.464;13.480;2024-02-21T09:38:05;10.00;99.90
9311;DHT22;4694;52.464;13.480;2024-02-21T09:40:32;10.10;99.90
9311;DHT22;4694;52.464;13.480;2024-02-21T09:43:04;10.20;99.90
9311;DHT22;4694;52.464;13.480;2024-02-21T09:45:33;10.20;99.90
9311;DHT22;4694;52.464;13.480;2024-02-21T09:48:19;10.20;99.90
9311;DHT22;4694;52.464;13.480;2024-02-21T09:50:50;10.20;99.90
9311;DHT22;4694;52.464;13.480;2024-02-21T09:53:18;10.20;99.90
9311;DHT22;4694;52.464;13.480;2024-02-21T09:55:47;10.20;99.90
9311;DHT22;4694;52.464;13.480;2024-02-21T09:58:14;10.20;99.90
9311;DHT22;4694;52.464;13.480;2024-02-21T10:00:41;10.20;99.90
9311;DHT22;4694;52.464;13.480;2024-02-21T10:03:09;10.30;99.90
9311;DHT22;4694;52.464;13.480;2024-02-21T10:05:37;10.30;99.90
9311;DHT22;4694;52.464;13.480;2024-02-21T10:08:05;10.30;99.90
9311;DHT22;4694;52.464;13.480;2024-02-21T10:10:41;10.30;99.90
9311;DHT22;4694;52.464;13.480;2024-02-21T10:13:09;10.40;99.90
9311;DHT22;4694;52.464;13.480;2024-02-21T10:15:36;10.40;99.90
9311;DHT22;4694;52.464;13.480;2024-02-21T10:18:03;10.50;99.90
9311;DHT22;4694;52.464;13.480;2024-02-21T10:20:31;10.60;99.90
9311;DHT22;4694;52.464;13.480;2024-02-21T10:23:01;10.70;99.90
9311;DHT22;4694;52.464;13.480;2024-02-21T10:25:28;10.80;99.90
9311;DHT22;4694;52.464;13.480;2024-02-21T10:27:56;11.00;99.90
9311;DHT22;4694;52.464;13.480;2024-02-21T10:30:23;11.10;99.90
9311;DHT22;4694;52.464;13.480;2024-02-21T10:32:50;11.20;99.90
9311;DHT22;4694;52.464;13.480;2024-02-21T10:35:26;11.20;99.90
9311;DHT22;4694;52.464;13.480;2024-02-21T10:37:55;11.20;99.90
9311;DHT22;4694;52.464;13.480;2024-02-21T10:40:23;11.20;99.90
9311;DHT22;4694;52.464;13.480;2024-02-21T10:42:55;11.10;99.90
9311;DHT22;4694;52.464;13.480;2024-02-21T10:45:29;11.10;99.90
9311;DHT22;4694;52.464;13.480;2024-02-21T10:48:05;11.10;99.90
9311;DHT22;4694;52.464;13.480;2024-02-21T10:50:43;11.10;99.90
9311;DHT22;4694;52.464;13.480;2024-02-21T10:53:25;11.00;99.90
9311;DHT22;4694;52.464;13.480;2024-02-21T10:55:58;11.00;99.90
9311;DHT22;4694;52.464;13.480;2024-02-21T10:58:29;11.00;99.90
9311;DHT22;4694;52.464;13.480;2024-02-21T11:00:57;11.00;99.90
9311;DHT22;4694;52.464;13.480;2024-02-21T11:03:24;10.90;99.90
9311;DHT22;4694;52.464;13.480;2024-02-21T11:05:51;10.90;99.90
9311;DHT22;4694;52.464;13.480;2024-02-21T11:08:19;10.80;99.90
9311;DHT22;4694;52.464;13.480;2024-02-21T11:10:46;10.90;99.90
9311;DHT22;4694;52.464;13.480;2024-02-21T11:13:13;10.90;99.90
9311;DHT22;4694;52.464;13.480;2024-02-21T11:15:40;11.00;99.90
9311;DHT22;4694;52.464;13.480;2024-02-21T11:18:06;11.00;99.90
9311;DHT22;4694;52.464;13.480;2024-02-21T11:20:33;11.10;99.90
9311;DHT22;4694;52.464;13.480;2024-02-21T11:23:00;11.10;99.90
9311;DHT22;4694;52.464;13.480;2024-02-21T11:25:29;11.20;99.90
9311;DHT22;4694;52.464;13.480;2024-02-21T11:28:01;11.40;99.90
9311;DHT22;4694;52.464;13.480;2024-02-21T11:30:29;11.70;99.90
9311;DHT22;4694;52.464;13.480;2024-02-21T11:33:06;12.10;99.90
9311;DHT22;4694;52.464;13.480;2024-02-21T11:35:34;12.50;99.90
9311;DHT22;4694;52.464;13.480;2024-02-21T11:38:10;12.80;99.90
9311;DHT22;4694;52.464;13.480;2024-02-21T11:40:43;13.10;99.90
9311;DHT22;4694;52.464;13.480;2024-02-21T11:43:10;13.80;99.90
9311;DHT22;4694;52.464;13.480;2024-02-21T11:45:37;14.30;99.90
9311;DHT22;4694;52.464;13.480;2024-02-21T11:48:06;14.30;99.90
9311;DHT22;4694;52.464;13.480;2024-02-21T11:50:33;14.60;99.90
9311;DHT22;4694;52.464;13.480;2024-02-21T11:53:00;14.50;99.90
9311;DHT22;4694;52.464;13.480;2024-02-21T11:55:27;14.70;99.90
9311;DHT22;4694;52.464;13.480;2024-02-21T11:57:55;15.10;99.90
9311;DHT22;4694;52.464;13.480;2024-02-21T12:00:23;15.90;99.90
9311;DHT22;4694;52.464;13.480;2024-02-21T12:02:50;16.60;99.90
9311;DHT22;4694;52.464;13.480;2024-02-21T12:05:18;17.00;99.90
9311;DHT22;4694;52.464;13.480;2024-02-21T12:07:45;17.80;97.60
9311;DHT22;4694;52.464;13.480;2024-02-21T12:10:13;18.40;94.50
9311;DHT22;4694;52.464;13.480;2024-02-21T12:12:40;19.30;88.00
9311;DHT22;4694;52.464;13.480;2024-02-21T12:15:08;20.10;80.20
9311;DHT22;4694;52.464;13.480;2024-02-21T12:17:35;20.40;77.20
9311;DHT22;4694;52.464;13.480;2024-02-21T12:20:02;20.80;74.90
9311;DHT22;4694;52.464;13.480;2024-02-21T12:22:31;20.90;73.70
9311;DHT22;4694;52.464;13.480;2024-02-21T12:24:58;20.50;72.90
9311;DHT22;4694;52.464;13.480;2024-02-21T12:27:25;20.50;73.80
9311;DHT22;4694;52.464;13.480;2024-02-21T12:29:52;20.90;72.90
9311;DHT22;4694;52.464;13.480;2024-02-21T12:32:20;21.00;71.60
9311;DHT22;4694;52.464;13.480;2024-02-21T12:34:46;21.40;71.60
9311;DHT22;4694;52.464;13.480;2024-02-21T12:37:13;21.50;70.60
9311;DHT22;4694;52.464;13.480;2024-02-21T12:39:41;21.50;69.50
9311;DHT22;4694;52.464;13.480;2024-02-21T12:42:07;20.90;69.30
9311;DHT22;4694;52.464;13.480;2024-02-21T12:44:37;19.90;71.00
9311;DHT22;4694;52.464;13.480;2024-02-21T12:47:03;18.70;73.70
9311;DHT22;4694;52.464;13.480;2024-02-21T12:49:31;17.60;77.30
9311;DHT22;4694;52.464;13.480;2024-02-21T12:51:58;16.70;82.70
9311;DHT22;4694;52.464;13.480;2024-02-21T12:54:24;16.00;98.80
9311;DHT22;4694;52.464;13.480;2024-02-21T12:56:51;15.40;99.90
9311;DHT22;4694;52.464;13.480;2024-02-21T12:59:18;14.90;99.90
9311;DHT22;4694;52.464;13.480;2024-02-21T13:01:44;14.40;99.90
9311;DHT22;4694;52.464;13.480;2024-02-21T13:04:11;14.00;99.90
9311;DHT22;4694;52.464;13.480;2024-02-21T13:06:39;13.70;99.90
9311;DHT22;4694;52.464;13.480;2024-02-21T13:09:06;13.90;99.90
9311;DHT22;4694;52.464;13.480;2024-02-21T13:11:36;14.10;99.90
9311;DHT22;4694;52.464;13.480;2024-02-21T13:14:03;14.20;99.90
9311;DHT22;4694;52.464;13.480;2024-02-21T13:16:29;14.20;99.90
9311;DHT22;4694;52.464;13.480;2024-02-21T13:18:56;14.90;99.90
9311;DHT22;4694;52.464;13.480;2024-02-21T13:21:23;15.30;99.90
9311;DHT22;4694;52.464;13.480;2024-02-21T13:23:51;15.30;99.90
9311;DHT22;4694;52.464;13.480;2024-02-21T13:26:18;15.30;99.90
9311;DHT22;4694;52.464;13.480;2024-02-21T13:28:45;15.30;99.90
9311;DHT22;4694;52.464;13.480;2024-02-21T13:31:13;15.40;99.90
9311;DHT22;4694;52.464;13.480;2024-02-21T13:33:42;15.20;99.90
9311;DHT22;4694;52.464;13.480;2024-02-21T13:36:09;14.90;99.90
9311;DHT22;4694;52.464;13.480;2024-02-21T13:38:36;14.80;99.90
9311;DHT22;4694;52.464;13.480;2024-02-21T13:41:05;14.60;99.90
9311;DHT22;4694;52.464;13.480;2024-02-21T13:43:32;14.30;99.90
9311;DHT22;4694;52.464;13.480;2024-02-21T13:46:00;14.10;99.90
9311;DHT22;4694;52.464;13.480;2024-02-21T13:48:28;13.80;99.90
9311;DHT22;4694;52.464;13.480;2024-02-21T13:50:55;13.70;99.90
9311;DHT22;4694;52.464;13.480;2024-02-21T13:53:22;13.50;99.90
9311;DHT22;4694;52.464;13.480;2024-02-21T13:55:49;13.30;99.90
9311;DHT22;4694;52.464;13.480;2024-02-21T13:58:17;13.10;99.90
9311;DHT22;4694;52.464;13.480;2024-02-21T14:00:43;13.00;99.90
9311;DHT22;4694;52.464;13.480;2024-02-21T14:03:10;12.90;99.90
9311;DHT22;4694;52.464;13.480;2024-02-21T14:05:37;12.80;99.90
9311;DHT22;4694;52.464;13.480;2024-02-21T14:08:05;12.70;99.90
9311;DHT22;4694;52.464;13.480;2024-02-21T14:10:32;12.70;99.90
9311;DHT22;4694;52.464;13.480;2024-02-21T14:12:59;12.60;99.90
9311;DHT22;4694;52.464;13.480;2024-02-21T14:15:27;12.60;99.90
9311;DHT22;4694;52.464;13.480;2024-02-21T14:17:53;12.50;99.90
9311;DHT22;4694;52.464;13.480;2024-02-21T14:20:21;12.40;99.90
9311;DHT22;4694;52.464;13.480;2024-02-21T14:22:48;12.40;99.90
9311;DHT22;4694;52.464;13.480;2024-02-21T14:25:14;12.40;99.90
9311;DHT22;4694;52.464;13.480;2024-02-21T14:27:42;12.40;99.90
9311;DHT22;4694;52.464;13.480;2024-02-21T14:30:09;12.40;99.90
9311;DHT22;4694;52.464;13.480;2024-02-21T14:32:37;12.50;99.90
9311;DHT22;4694;52.464;13.480;2024-02-21T14:35:05;12.50;99.90
9311;DHT22;4694;52.464;13.480;2024-02-21T14:37:31;12.50;99.90
9311;DHT22;4694;52.464;13.480;2024-02-21T14:39:58;12.50;99.90
9311;DHT22;4694;52.464;13.480;2024-02-21T14:42:25;12.50;99.90
9311;DHT22;4694;52.464;13.480;2024-02-21T14:44:52;12.50;99.90
9311;DHT22;4694;52.464;13.480;2024-02-21T14:47:19;12.60;99.90
9311;DHT22;4694;52.464;13.480;2024-02-21T14:49:47;12.70;99.90
9311;DHT22;4694;52.464;13.480;2024-02-21T14:52:13;12.80;99.90
9311;DHT22;4694;52.464;13.480;2024-02-21T14:54:42;12.70;99.90
9311;DHT22;4694;52.464;13.480;2024-02-21T14:57:14;12.70;99.90
9311;DHT22;4694;52.464;13.480;2024-02-21T14:59:40;12.60;99.90
9311;DHT22;4694;52.464;13.480;2024-02-21T15:02:07;12.50;99.90
9311;DHT22;4694;52.464;13.480;2024-02-21T15:04:35;12.40;99.90
9311;DHT22;4694;52.464;13.480;2024-02-21T15:07:03;12.40;99.90
9311;DHT22;4694;52.464;13.480;2024-02-21T15:09:30;12.40;99.90
9311;DHT22;4694;52.464;13.480;2024-02-21T15:11:57;12.30;99.90
9311;DHT22;4694;52.464;13.480;2024-02-21T15:14:24;12.30;99.90
9311;DHT22;4694;52.464;13.480;2024-02-21T15:16:51;12.30;99.90
9311;DHT22;4694;52.464;13.480;2024-02-21T15:19:18;12.30;99.90
9311;DHT22;4694;52.464;13.480;2024-02-21T15:21:45;12.20;99.90
9311;DHT22;4694;52.464;13.480;2024-02-21T15:24:13;12.20;99.90
9311;DHT22;4694;52.464;13.480;2024-02-21T15:26:40;12.10;99.90
9311;DHT22;4694;52.464;13.480;2024-02-21T15:29:09;12.10;99.90
9311;DHT22;4694;52.464;13.480;2024-02-21T15:31:40;12.00;99.90
9311;DHT22;4694;52.464;13.480;2024-02-21T15:34:13;12.00;99.90
9311;DHT22;4694;52.464;13.480;2024-02-21T15:36:42;11.90;99.90
9311;DHT22;4694;52.464;13.480;2024-02-21T15:39:08;11.80;99.90
9311;DHT22;4694;52.464;13.480;2024-02-21T15:41:37;11.70;99.90
9311;DHT22;4694;52.464;13.480;2024-02-21T15:44:04;11.70;99.90
9311;DHT22;4694;52.464;13.480;2024-02-21T15:46:30;11.60;99.90
9311;DHT22;4694;52.464;13.480;2024-02-21T15:48:59;11.50;99.90
9311;DHT22;4694;52.464;13.480;2024-02-21T15:51:26;11.40;99.90
9311;DHT22;4694;52.464;13.480;2024-02-21T15:53:53;11.30;99.90
9311;DHT22;4694;52.464;13.480;2024-02-21T15:56:19;11.30;99.90
9311;DHT22;4694;52.464;13.480;2024-02-21T15:58:47;11.20;99.90